createdAt,value
2023-02-15T00:01:48.459Z,26.95
2023-02-15T00:04:17.384Z,26.39
2023-02-15T00:06:44.114Z,24.42
2023-02-15T00:09:11.780Z,25.44
2023-02-15T00:11:41.992Z,25.98
2023-02-15T00:14:10.502Z,24.22
2023-02-15T00:16:38.438Z,29.62
2023-02-15T00:19:06.465Z,27.01
2023-02-15T00:21:34.984Z,25.34
2023-02-15T00:24:03.918Z,25.30
2023-02-15T00:26:31.344Z,27.54
2023-02-15T00:29:00.104Z,24.47
2023-02-15T00:31:29.430Z,23.99
2023-02-15T00:33:56.295Z,28.29
2023-02-15T00:36:23.064Z,26.92
2023-02-15T00:38:49.993Z,25.44
2023-02-15T00:41:17.561Z,24.81
2023-02-15T00:43:44.246Z,24.90
2023-02-15T00:46:14.132Z,24.74
2023-02-15T00:48:41.079Z,23.91
2023-02-15T00:51:08.131Z,27.06
2023-02-15T00:53:34.929Z,24.91
2023-02-15T00:56:02.125Z,24.48
2023-02-15T00:58:29.264Z,25.66
2023-02-15T01:00:56.307Z,24.34
2023-02-15T01:03:24.339Z,26.81
2023-02-15T01:05:51.476Z,24.61
2023-02-15T01:08:18.517Z,26.63
2023-02-15T01:10:48.167Z,27.26
2023-02-15T01:13:17.006Z,25.08
2023-02-15T01:15:44.703Z,24.84
2023-02-15T01:18:12.847Z,25.75
2023-02-15T01:20:42.537Z,24.59
2023-02-15T01:23:10.069Z,24.26
2023-02-15T01:25:37.483Z,25.32
2023-02-15T01:28:04.751Z,24.55
2023-02-15T01:30:33.468Z,26.31
2023-02-15T01:33:02.195Z,24.60
2023-02-15T01:35:31.328Z,29.43
2023-02-15T01:37:58.071Z,27.55
2023-02-15T01:40:25.907Z,26.85
2023-02-15T01:42:54.722Z,25.02
2023-02-15T01:45:33.318Z,29.00
2023-02-15T01:48:22.451Z,28.12
2023-02-15T01:51:01.521Z,25.36
2023-02-15T01:53:39.457Z,24.49
2023-02-15T01:56:16.108Z,25.42
2023-02-15T01:58:44.873Z,24.44
2023-02-15T02:01:12.121Z,23.04
2023-02-15T02:03:53.943Z,26.81
2023-02-15T02:06:21.624Z,23.96
2023-02-15T02:08:49.797Z,22.53
2023-02-15T02:11:17.312Z,22.47
2023-02-15T02:13:48.558Z,22.82
2023-02-15T02:16:24.288Z,24.95
2023-02-15T02:19:06.473Z,23.28
2023-02-15T02:21:51.493Z,23.13
2023-02-15T02:24:34.645Z,24.24
2023-02-15T02:27:26.568Z,23.15
2023-02-15T02:30:26.473Z,26.19
2023-02-15T02:33:18.901Z,27.56
2023-02-15T02:35:57.168Z,23.91
2023-02-15T02:38:38.944Z,23.30
2023-02-15T02:41:25.242Z,22.87
2023-02-15T02:44:10.463Z,23.20
2023-02-15T02:46:47.110Z,22.86
2023-02-15T02:49:14.459Z,23.27
2023-02-15T02:51:41.795Z,23.66
2023-02-15T02:54:10.378Z,22.79
2023-02-15T02:56:50.240Z,22.62
2023-02-15T02:59:21.974Z,23.48
2023-02-15T03:01:57.094Z,23.24
2023-02-15T03:04:32.288Z,22.85
2023-02-15T03:07:07.991Z,22.29
2023-02-15T03:09:45.907Z,24.00
2023-02-15T03:12:36.791Z,25.01
2023-02-15T03:15:16.788Z,25.80
2023-02-15T03:17:52.882Z,23.50
2023-02-15T03:20:31.914Z,25.08
2023-02-15T03:23:07.016Z,24.36
2023-02-15T03:25:38.191Z,23.68
2023-02-15T03:28:18.256Z,24.01
2023-02-15T03:30:49.369Z,24.50
2023-02-15T03:33:17.075Z,23.06
2023-02-15T03:35:46.358Z,23.59
2023-02-15T03:38:18.538Z,22.75
2023-02-15T03:41:06.343Z,24.05
2023-02-15T03:43:56.596Z,25.80
2023-02-15T03:46:29.255Z,23.62
2023-02-15T03:49:01.280Z,24.23
2023-02-15T03:51:37.269Z,24.63
2023-02-15T03:54:43.394Z,23.81
2023-02-15T03:57:46.187Z,23.47
2023-02-15T04:00:38.668Z,23.55
2023-02-15T04:03:27.361Z,24.53
2023-02-15T04:05:54.092Z,23.77
2023-02-15T04:08:20.864Z,23.45
2023-02-15T04:10:53.453Z,23.85
2023-02-15T04:13:21.322Z,25.19
2023-02-15T04:16:07.251Z,24.56
2023-02-15T04:19:00.751Z,22.98
2023-02-15T04:21:49.066Z,22.84
2023-02-15T04:24:34.931Z,23.26
2023-02-15T04:27:03.669Z,22.72
2023-02-15T04:29:30.455Z,22.11
2023-02-15T04:31:59.294Z,23.20
2023-02-15T04:34:26.833Z,23.99
2023-02-15T04:36:53.750Z,23.91
2023-02-15T04:39:20.496Z,25.26
2023-02-15T04:41:49.048Z,22.96
2023-02-15T04:44:16.471Z,23.01
2023-02-15T04:46:43.394Z,22.88
2023-02-15T04:49:10.512Z,23.25
2023-02-15T04:51:37.810Z,23.37
2023-02-15T04:54:04.999Z,22.90
2023-02-15T04:56:32.387Z,23.49
2023-02-15T04:58:59.121Z,23.69
2023-02-15T05:01:25.973Z,22.96
2023-02-15T05:03:52.713Z,22.61
2023-02-15T05:06:19.449Z,22.26
2023-02-15T05:08:46.335Z,23.45
2023-02-15T05:11:13.555Z,23.46
2023-02-15T05:13:40.524Z,22.89
2023-02-15T05:16:07.195Z,23.09
2023-02-15T05:18:34.302Z,23.72
2023-02-15T05:21:01.012Z,23.09
2023-02-15T05:23:28.447Z,23.16
2023-02-15T05:26:13.650Z,24.12
2023-02-15T05:28:40.512Z,24.41
2023-02-15T05:31:09.287Z,24.18
2023-02-15T05:33:36.756Z,24.00
2023-02-15T05:36:04.950Z,23.57
2023-02-15T05:38:32.910Z,25.45
2023-02-15T05:40:59.860Z,23.82
2023-02-15T05:43:27.370Z,23.46
2023-02-15T05:45:55.372Z,23.29
2023-02-15T05:48:24.219Z,23.86
2023-02-15T05:51:10.788Z,23.94
2023-02-15T05:53:39.534Z,24.21
2023-02-15T05:56:08.401Z,23.63
2023-02-15T05:58:38.811Z,23.22
2023-02-15T06:01:24.065Z,22.84
2023-02-15T06:03:51.241Z,22.43
2023-02-15T06:06:18.410Z,24.69
2023-02-15T06:08:45.445Z,23.93
2023-02-15T06:11:12.520Z,25.37
2023-02-15T06:13:39.379Z,24.30
2023-02-15T06:16:07.459Z,24.88
2023-02-15T06:18:34.947Z,25.39
2023-02-15T06:21:01.659Z,24.32
2023-02-15T06:23:29.620Z,23.00
2023-02-15T06:25:56.506Z,23.50
2023-02-15T06:28:23.316Z,23.71
2023-02-15T06:30:50.095Z,22.97
2023-02-15T06:33:16.862Z,24.56
2023-02-15T06:35:46.011Z,27.11
2023-02-15T06:38:13.003Z,26.65
2023-02-15T06:40:39.791Z,24.59
2023-02-15T06:43:06.675Z,23.62
2023-02-15T06:45:33.710Z,26.23
2023-02-15T06:48:00.418Z,24.56
2023-02-15T06:50:27.133Z,22.37
2023-02-15T06:52:59.170Z,23.03
2023-02-15T06:55:26.683Z,23.36
2023-02-15T06:57:53.405Z,24.60
2023-02-15T07:00:21.581Z,25.28
2023-02-15T07:02:48.400Z,24.36
2023-02-15T07:05:15.261Z,23.83
2023-02-15T07:07:41.969Z,22.82
2023-02-15T07:10:08.967Z,24.19
2023-02-15T07:12:45.603Z,24.35
2023-02-15T07:15:16.843Z,23.98
2023-02-15T07:17:44.422Z,22.28
2023-02-15T07:20:14.571Z,22.23
2023-02-15T07:22:41.246Z,22.40
2023-02-15T07:25:09.903Z,23.29
2023-02-15T07:27:37.209Z,22.86
2023-02-15T07:30:05.842Z,22.91
2023-02-15T07:32:34.152Z,22.33
2023-02-15T07:35:01.178Z,22.41
2023-02-15T07:37:29.655Z,21.79
2023-02-15T07:39:56.392Z,22.02
2023-02-15T07:42:23.232Z,25.03
2023-02-15T07:44:50.814Z,23.98
2023-02-15T07:47:17.644Z,24.53
2023-02-15T07:49:45.417Z,22.36
2023-02-15T07:52:12.188Z,22.93
2023-02-15T07:54:38.911Z,23.33
2023-02-15T07:57:06.015Z,19.28
2023-02-15T07:59:32.742Z,17.79
2023-02-15T08:02:00.034Z,15.96
2023-02-15T08:04:26.869Z,16.42
2023-02-15T08:06:55.406Z,17.47
2023-02-15T08:09:22.904Z,18.01
2023-02-15T08:11:50.826Z,17.19
2023-02-15T08:14:20.131Z,16.47
2023-02-15T08:16:46.873Z,16.79
2023-02-15T08:19:21.293Z,17.76
2023-02-15T08:21:52.223Z,17.91
2023-02-15T08:24:22.289Z,16.47
2023-02-15T08:26:51.032Z,18.36
2023-02-15T08:29:20.338Z,20.09
2023-02-15T08:31:47.408Z,19.00
2023-02-15T08:34:19.947Z,14.75
2023-02-15T08:36:46.799Z,17.42
2023-02-15T08:39:15.540Z,15.38
2023-02-15T08:41:47.432Z,17.61
2023-02-15T08:44:16.685Z,19.61
2023-02-15T08:46:46.043Z,19.15
2023-02-15T08:49:16.511Z,17.59
2023-02-15T08:51:43.625Z,18.73
2023-02-15T08:54:14.393Z,15.54
2023-02-15T08:56:43.065Z,16.26
2023-02-15T08:59:18.999Z,16.28
2023-02-15T09:01:46.911Z,18.90
2023-02-15T09:04:14.487Z,16.91
2023-02-15T09:06:42.564Z,17.32
2023-02-15T09:09:09.536Z,18.73
2023-02-15T09:11:42.447Z,15.00
2023-02-15T09:14:14.685Z,15.00
2023-02-15T09:16:45.986Z,16.45
2023-02-15T09:19:13.036Z,18.37
2023-02-15T09:21:39.865Z,17.91
2023-02-15T09:24:09.920Z,15.97
2023-02-15T09:26:41.754Z,19.95
2023-02-15T09:29:09.859Z,16.35
2023-02-15T09:31:49.846Z,16.33
2023-02-15T09:34:19.768Z,18.43
2023-02-15T09:36:47.840Z,19.62
2023-02-15T09:39:26.300Z,18.94
2023-02-15T09:41:54.730Z,19.89
2023-02-15T09:44:37.164Z,16.18
2023-02-15T09:47:22.047Z,18.79
2023-02-15T09:50:23.569Z,19.66
2023-02-15T09:53:45.130Z,19.84
2023-02-15T09:56:29.936Z,22.27
2023-02-15T09:59:33.946Z,22.24
2023-02-15T10:02:09.961Z,20.58
2023-02-15T10:04:42.505Z,19.47
2023-02-15T10:07:12.923Z,19.73
2023-02-15T10:09:42.607Z,22.46
2023-02-15T10:12:24.463Z,21.09
2023-02-15T10:15:16.499Z,21.38
2023-02-15T10:18:10.726Z,19.34
2023-02-15T10:20:43.123Z,20.88
2023-02-15T10:23:09.930Z,21.38
2023-02-15T10:25:51.984Z,21.58
2023-02-15T10:28:24.257Z,21.44
2023-02-15T10:31:05.127Z,19.68
2023-02-15T10:33:43.111Z,20.07
2023-02-15T10:36:28.861Z,20.59
2023-02-15T10:39:24.189Z,19.36
2023-02-15T10:42:00.052Z,18.87
2023-02-15T10:44:38.974Z,19.73
2023-02-15T10:47:12.883Z,18.99
2023-02-15T10:50:07.966Z,20.09
2023-02-15T10:52:46.788Z,21.51
2023-02-15T10:55:52.948Z,19.93
2023-02-15T10:58:45.931Z,19.17
2023-02-15T11:01:38.058Z,18.51
2023-02-15T11:04:42.551Z,19.29
2023-02-15T11:07:17.576Z,21.24
2023-02-15T11:09:56.241Z,19.42
2023-02-15T11:12:28.077Z,17.45
2023-02-15T11:15:21.041Z,17.82
2023-02-15T11:17:57.504Z,19.10
2023-02-15T11:20:39.670Z,19.54
2023-02-15T11:23:19.353Z,19.30
2023-02-15T11:25:59.102Z,17.56
2023-02-15T11:28:35.186Z,18.75
2023-02-15T11:31:22.117Z,19.84
2023-02-15T11:34:06.881Z,18.59
2023-02-15T11:36:38.691Z,18.05
2023-02-15T11:39:18.475Z,17.13
2023-02-15T11:41:53.241Z,16.46
2023-02-15T11:44:34.952Z,15.86
2023-02-15T11:47:02.639Z,18.20
2023-02-15T11:49:35.052Z,17.59
2023-02-15T11:52:06.724Z,17.78
2023-02-15T11:54:41.414Z,17.74
2023-02-15T11:57:36.733Z,19.81
2023-02-15T12:00:11.586Z,17.34
2023-02-15T12:02:43.492Z,19.23
2023-02-15T12:05:20.179Z,18.29
2023-02-15T12:07:53.966Z,18.70
2023-02-15T12:10:25.900Z,17.96
2023-02-15T12:13:22.468Z,18.31
2023-02-15T12:15:52.406Z,16.52
2023-02-15T12:18:41.009Z,16.41
2023-02-15T12:21:12.855Z,16.95
2023-02-15T12:23:47.993Z,19.36
2023-02-15T12:26:15.509Z,19.31
2023-02-15T12:28:45.527Z,17.79
2023-02-15T12:31:33.667Z,17.71
2023-02-15T12:34:03.992Z,16.80
2023-02-15T12:36:55.338Z,19.88
2023-02-15T12:39:28.626Z,20.61
2023-02-15T12:41:55.312Z,20.02
2023-02-15T12:44:35.378Z,20.04
2023-02-15T12:47:06.226Z,16.53
2023-02-15T12:49:38.687Z,19.40
2023-02-15T12:52:26.971Z,18.68
2023-02-15T12:54:53.928Z,17.91
2023-02-15T12:57:28.128Z,20.38
2023-02-15T13:00:26.831Z,19.82
2023-02-15T13:02:58.583Z,16.66
2023-02-15T13:05:44.140Z,17.02
2023-02-15T13:08:20.729Z,17.91
2023-02-15T13:11:10.359Z,20.07
2023-02-15T13:13:56.987Z,18.78
2023-02-15T13:16:44.232Z,19.77
2023-02-15T13:19:17.196Z,19.83
2023-02-15T13:21:54.148Z,20.40
2023-02-15T13:24:32.095Z,22.07
2023-02-15T13:27:13.155Z,20.87
2023-02-15T13:29:46.719Z,21.66
2023-02-15T13:32:25.630Z,21.64
2023-02-15T13:34:57.833Z,19.28
2023-02-15T13:37:39.488Z,19.81
2023-02-15T13:40:28.954Z,19.17
2023-02-15T13:43:03.541Z,17.46
2023-02-15T13:45:45.513Z,19.58
2023-02-15T13:48:45.770Z,19.40
2023-02-15T13:51:21.028Z,20.21
2023-02-15T13:54:09.401Z,19.72
2023-02-15T13:57:26.896Z,21.55
2023-02-15T14:00:20.671Z,19.55
2023-02-15T14:03:29.033Z,18.28
2023-02-15T14:06:25.154Z,17.41
2023-02-15T14:09:09.660Z,17.35
2023-02-15T14:11:54.677Z,17.82
2023-02-15T14:14:27.151Z,18.10
2023-02-15T14:17:07.024Z,17.95
2023-02-15T14:19:52.489Z,18.32
2023-02-15T14:22:23.148Z,17.75
2023-02-15T14:25:05.424Z,18.96
2023-02-15T14:28:34.061Z,18.64
2023-02-15T14:31:04.717Z,19.34
2023-02-15T14:33:39.572Z,20.16
2023-02-15T14:36:09.776Z,20.60
2023-02-15T14:38:58.071Z,20.44
2023-02-15T14:41:45.416Z,19.37
2023-02-15T14:44:21.279Z,19.88
2023-02-15T14:46:56.813Z,20.21
2023-02-15T14:49:27.434Z,21.98
2023-02-15T14:52:00.087Z,19.29
2023-02-15T14:54:26.911Z,19.84
2023-02-15T14:57:02.987Z,19.77
2023-02-15T14:59:53.572Z,20.88
2023-02-15T15:02:26.557Z,21.95
2023-02-15T15:04:56.160Z,20.58
2023-02-15T15:07:26.312Z,20.00
2023-02-15T15:10:27.936Z,21.60
2023-02-15T15:12:56.492Z,22.75
2023-02-15T15:15:32.128Z,21.58
2023-02-15T15:18:04.038Z,21.67
2023-02-15T15:20:45.761Z,21.87
2023-02-15T15:23:21.078Z,20.57
2023-02-15T15:25:52.936Z,21.60
2023-02-15T15:28:34.866Z,23.08
2023-02-15T15:31:23.470Z,22.23
2023-02-15T15:33:50.424Z,22.25
2023-02-15T15:36:23.187Z,22.18
2023-02-15T15:39:06.964Z,21.25
2023-02-15T15:41:49.263Z,24.17
2023-02-15T15:44:37.997Z,22.30
2023-02-15T15:47:16.943Z,22.77
2023-02-15T15:49:44.054Z,24.41
2023-02-15T15:52:19.922Z,23.93
2023-02-15T15:54:53.591Z,24.00
2023-02-15T15:57:41.730Z,23.77
2023-02-15T16:00:27.824Z,23.58
2023-02-15T16:02:57.055Z,23.02
2023-02-15T16:05:24.300Z,22.84
2023-02-15T16:07:51.092Z,23.58
2023-02-15T16:10:27.114Z,23.24
2023-02-15T16:12:55.777Z,24.33
2023-02-15T16:15:34.659Z,23.01
2023-02-15T16:18:02.067Z,23.54
2023-02-15T16:20:34.958Z,24.07
2023-02-15T16:23:23.388Z,23.97
2023-02-15T16:26:05.563Z,23.76
2023-02-15T16:28:32.385Z,24.64
2023-02-15T16:31:28.774Z,23.98
2023-02-15T16:33:56.819Z,22.82
2023-02-15T16:36:24.927Z,23.31
2023-02-15T16:38:51.563Z,24.51
2023-02-15T16:41:22.376Z,24.32
2023-02-15T16:43:51.198Z,23.76
2023-02-15T16:46:27.079Z,24.14
2023-02-15T16:48:59.720Z,26.32
2023-02-15T16:51:30.856Z,24.71
2023-02-15T16:54:04.290Z,24.87
2023-02-15T16:56:32.302Z,23.56
2023-02-15T16:59:00.782Z,23.54
2023-02-15T17:01:32.079Z,24.43
2023-02-15T17:04:14.582Z,24.35
2023-02-15T17:06:41.524Z,25.52
2023-02-15T17:09:19.577Z,24.48
2023-02-15T17:11:46.614Z,23.19
2023-02-15T17:14:22.005Z,25.65
2023-02-15T17:16:51.870Z,23.96
2023-02-15T17:19:28.497Z,24.49
2023-02-15T17:22:02.357Z,23.26
2023-02-15T17:24:32.261Z,25.61
2023-02-15T17:27:04.394Z,25.68
2023-02-15T17:29:40.668Z,24.94
2023-02-15T17:32:17.893Z,25.33
2023-02-15T17:34:48.080Z,24.03
2023-02-15T17:37:37.433Z,25.38
2023-02-15T17:40:22.664Z,24.63
2023-02-15T17:42:50.007Z,23.21
2023-02-15T17:45:17.221Z,23.62
2023-02-15T17:47:46.037Z,23.67
2023-02-15T17:50:25.378Z,26.19
2023-02-15T17:52:54.194Z,24.78
2023-02-15T17:55:35.967Z,25.74
2023-02-15T17:58:05.951Z,25.73
2023-02-15T18:00:53.421Z,24.71
2023-02-15T18:03:39.930Z,24.29
2023-02-15T18:06:25.562Z,23.09
2023-02-15T18:09:12.739Z,26.96
2023-02-15T18:11:40.221Z,25.25
2023-02-15T18:14:10.582Z,23.19
2023-02-15T18:16:41.721Z,23.40
2023-02-15T18:19:15.023Z,22.88
2023-02-15T18:21:41.823Z,23.95
2023-02-15T18:24:21.005Z,22.98
2023-02-15T18:26:48.383Z,24.87
2023-02-15T18:29:15.150Z,23.31
2023-02-15T18:31:44.237Z,22.86
2023-02-15T18:34:44.848Z,23.49
2023-02-15T18:37:15.853Z,22.85
2023-02-15T18:39:46.749Z,22.67
2023-02-15T18:42:23.320Z,26.09
2023-02-15T18:44:53.621Z,25.33
2023-02-15T18:47:20.590Z,23.04
2023-02-15T18:49:47.394Z,22.94
2023-02-15T18:52:19.142Z,26.76
2023-02-15T18:54:46.999Z,26.26
2023-02-15T18:57:15.649Z,24.17
2023-02-15T18:59:43.483Z,24.29
2023-02-15T19:02:15.166Z,23.56
2023-02-15T19:04:42.102Z,22.94
2023-02-15T19:07:18.573Z,23.91
2023-02-15T19:09:50.360Z,23.32
2023-02-15T19:12:27.517Z,24.27
2023-02-15T19:14:56.018Z,24.17
2023-02-15T19:17:23.940Z,23.67
2023-02-15T19:19:52.505Z,23.34
2023-02-15T19:22:31.342Z,23.56
2023-02-15T19:25:00.733Z,24.77
2023-02-15T19:27:35.355Z,23.56
2023-02-15T19:30:24.379Z,23.76
2023-02-15T19:32:51.817Z,23.79
2023-02-15T19:35:22.497Z,22.49
2023-02-15T19:37:51.857Z,22.02
2023-02-15T19:40:30.727Z,22.38
2023-02-15T19:42:58.448Z,23.31
2023-02-15T19:45:30.392Z,28.46
2023-02-15T19:48:01.380Z,27.19
2023-02-15T19:50:33.323Z,24.12
2023-02-15T19:53:01.635Z,22.89
2023-02-15T19:55:30.871Z,24.48
2023-02-15T19:57:59.215Z,26.43
2023-02-15T20:00:29.637Z,27.16
2023-02-15T20:02:59.114Z,26.24
2023-02-15T20:05:32.074Z,26.85
2023-02-15T20:07:59.619Z,25.36
2023-02-15T20:10:31.882Z,27.27
2023-02-15T20:12:59.523Z,27.49
2023-02-15T20:15:34.730Z,26.85
2023-02-15T20:18:04.042Z,25.19
2023-02-15T20:20:44.436Z,26.03
2023-02-15T20:23:22.065Z,24.44
2023-02-15T20:25:49.709Z,22.82
2023-02-15T20:28:23.055Z,25.85
2023-02-15T20:30:50.452Z,26.29
2023-02-15T20:33:19.057Z,24.77
2023-02-15T20:35:46.598Z,24.46
2023-02-15T20:38:26.699Z,23.52
2023-02-15T20:41:13.087Z,26.86
2023-02-15T20:43:40.629Z,24.69
2023-02-15T20:46:08.094Z,25.20
2023-02-15T20:48:35.857Z,23.95
2023-02-15T20:51:03.214Z,26.13
2023-02-15T20:53:30.326Z,27.69
2023-02-15T20:55:57.153Z,25.19
2023-02-15T20:58:30.101Z,24.93
2023-02-15T21:00:59.355Z,26.54
2023-02-15T21:03:30.878Z,24.87
2023-02-15T21:05:59.293Z,24.66
2023-02-15T21:08:27.021Z,23.24
2023-02-15T21:10:54.682Z,22.34
2023-02-15T21:13:32.701Z,23.23
2023-02-15T21:16:00.263Z,22.33
2023-02-15T21:18:30.034Z,25.40
2023-02-15T21:20:59.648Z,24.21
2023-02-15T21:23:33.797Z,26.97
2023-02-15T21:26:01.621Z,25.07
2023-02-15T21:28:30.034Z,26.35
2023-02-15T21:30:58.201Z,23.56
2023-02-15T21:33:26.553Z,25.94
2023-02-15T21:35:57.257Z,25.95
2023-02-15T21:38:26.295Z,24.07
2023-02-15T21:40:53.336Z,24.12
2023-02-15T21:43:43.483Z,24.42
2023-02-15T21:46:36.994Z,23.01
2023-02-15T21:49:08.819Z,24.73
2023-02-15T21:51:54.412Z,22.59
2023-02-15T21:54:21.877Z,22.29
2023-02-15T21:56:50.998Z,23.02
2023-02-15T21:59:18.513Z,23.22
2023-02-15T22:01:49.786Z,23.17
2023-02-15T22:04:34.405Z,24.39
2023-02-15T22:07:01.136Z,22.78
2023-02-15T22:09:28.061Z,22.10
2023-02-15T22:11:55.299Z,21.80
2023-02-15T22:14:42.863Z,21.96
2023-02-15T22:17:19.450Z,22.15
2023-02-15T22:19:47.951Z,22.33
2023-02-15T22:22:15.413Z,22.15
2023-02-15T22:24:42.806Z,23.46
2023-02-15T22:27:22.182Z,23.47
2023-02-15T22:29:50.189Z,22.62
2023-02-15T22:32:26.908Z,23.05
2023-02-15T22:34:54.702Z,23.13
2023-02-15T22:37:21.986Z,23.36
2023-02-15T22:39:48.934Z,22.72
2023-02-15T22:42:25.283Z,22.81
2023-02-15T22:44:54.984Z,22.68
2023-02-15T22:47:24.353Z,23.43
2023-02-15T22:49:51.512Z,23.68
2023-02-15T22:52:18.941Z,23.05
2023-02-15T22:54:46.273Z,22.08
2023-02-15T22:57:23.662Z,24.70
2023-02-15T22:59:50.397Z,24.78
2023-02-15T23:02:17.609Z,23.20
2023-02-15T23:04:44.715Z,22.60
2023-02-15T23:07:17.509Z,22.82
2023-02-15T23:09:45.001Z,23.27
2023-02-15T23:12:24.687Z,23.88
2023-02-15T23:14:52.642Z,24.59
2023-02-15T23:17:19.910Z,28.89
2023-02-15T23:19:46.705Z,24.79
2023-02-15T23:22:18.025Z,24.59
2023-02-15T23:24:51.987Z,30.41
2023-02-15T23:27:37.808Z,27.86
2023-02-15T23:30:07.054Z,29.05
2023-02-15T23:32:33.928Z,25.48
2023-02-15T23:35:01.329Z,25.00
2023-02-15T23:37:28.906Z,25.97
2023-02-15T23:40:14.948Z,23.41
2023-02-15T23:42:41.759Z,22.73
2023-02-15T23:45:22.913Z,22.87
2023-02-15T23:48:08.785Z,23.28
2023-02-15T23:50:35.585Z,26.17
2023-02-15T23:53:02.387Z,24.74
2023-02-15T23:55:41.284Z,23.34
2023-02-15T23:58:18.115Z,24.77
